sensor_id;sensor_type;location;lat;lon;timestamp;P1;durP1;ratioP1;P2;durP2;ratioP2
8550;SDS011;4313;42.000;21.380;2023-04-22T00:02:22;18.80;;;16.85;;
8550;SDS011;4313;42.000;21.380;2023-04-22T00:04:50;16.87;;;15.10;;
8550;SDS011;4313;42.000;21.380;2023-04-22T00:07:18;17.57;;;15.83;;
8550;SDS011;4313;42.000;21.380;2023-04-22T00:09:45;17.77;;;16.07;;
8550;SDS011;4313;42.000;21.380;2023-04-22T00:12:12;18.33;;;13.43;;
8550;SDS011;4313;42.000;21.380;2023-04-22T00:14:39;17.37;;;14.20;;
8550;SDS011;4313;42.000;21.380;2023-04-22T00:17:06;13.00;;;11.70;;
8550;SDS011;4313;42.000;21.380;2023-04-22T00:19:33;12.80;;;10.43;;
8550;SDS011;4313;42.000;21.380;2023-04-22T00:22:01;13.47;;;10.73;;
8550;SDS011;4313;42.000;21.380;2023-04-22T00:24:30;12.13;;;10.43;;
8550;SDS011;4313;42.000;21.380;2023-04-22T00:26:57;14.10;;;9.80;;
8550;SDS011;4313;42.000;21.380;2023-04-22T00:29:25;12.43;;;9.90;;
8550;SDS011;4313;42.000;21.380;2023-04-22T00:31:54;11.70;;;9.70;;
8550;SDS011;4313;42.000;21.380;2023-04-22T00:34:21;11.30;;;9.40;;
8550;SDS011;4313;42.000;21.380;2023-04-22T00:36:48;11.50;;;9.27;;
8550;SDS011;4313;42.000;21.380;2023-04-22T00:39:16;14.57;;;9.87;;
8550;SDS011;4313;42.000;21.380;2023-04-22T00:41:44;11.20;;;9.93;;
8550;SDS011;4313;42.000;21.380;2023-04-22T00:44:12;15.27;;;9.37;;
8550;SDS011;4313;42.000;21.380;2023-04-22T00:46:39;12.73;;;9.73;;
8550;SDS011;4313;42.000;21.380;2023-04-22T00:49:06;14.53;;;10.50;;
8550;SDS011;4313;42.000;21.380;2023-04-22T00:51:34;12.57;;;9.10;;
8550;SDS011;4313;42.000;21.380;2023-04-22T00:54:01;11.37;;;10.20;;
8550;SDS011;4313;42.000;21.380;2023-04-22T00:56:30;12.23;;;9.97;;
8550;SDS011;4313;42.000;21.380;2023-04-22T00:58:58;13.10;;;10.67;;
8550;SDS011;4313;42.000;21.380;2023-04-22T01:01:26;11.87;;;10.03;;
8550;SDS011;4313;42.000;21.380;2023-04-22T01:03:53;13.00;;;10.53;;
8550;SDS011;4313;42.000;21.380;2023-04-22T01:06:21;14.30;;;9.80;;
8550;SDS011;4313;42.000;21.380;2023-04-22T01:08:50;15.17;;;9.67;;
8550;SDS011;4313;42.000;21.380;2023-04-22T01:11:17;13.13;;;9.47;;
8550;SDS011;4313;42.000;21.380;2023-04-22T01:13:45;13.03;;;10.30;;
8550;SDS011;4313;42.000;21.380;2023-04-22T01:16:13;12.03;;;9.60;;
8550;SDS011;4313;42.000;21.380;2023-04-22T01:18:40;13.40;;;9.60;;
8550;SDS011;4313;42.000;21.380;2023-04-22T01:21:07;13.30;;;9.50;;
8550;SDS011;4313;42.000;21.380;2023-04-22T01:23:36;12.60;;;9.67;;
8550;SDS011;4313;42.000;21.380;2023-04-22T01:26:04;13.27;;;8.87;;
8550;SDS011;4313;42.000;21.380;2023-04-22T01:28:31;14.37;;;8.63;;
8550;SDS011;4313;42.000;21.380;2023-04-22T01:30:59;11.23;;;8.97;;
8550;SDS011;4313;42.000;21.380;2023-04-22T01:33:26;12.53;;;8.73;;
8550;SDS011;4313;42.000;21.380;2023-04-22T01:35:53;10.73;;;8.67;;
8550;SDS011;4313;42.000;21.380;2023-04-22T01:38:20;12.20;;;9.30;;
8550;SDS011;4313;42.000;21.380;2023-04-22T01:40:49;14.27;;;9.30;;
8550;SDS011;4313;42.000;21.380;2023-04-22T01:43:17;10.93;;;9.00;;
8550;SDS011;4313;42.000;21.380;2023-04-22T01:46:02;16.17;;;8.93;;
8550;SDS011;4313;42.000;21.380;2023-04-22T01:48:48;9.17;;;8.23;;
8550;SDS011;4313;42.000;21.380;2023-04-22T01:51:16;11.17;;;8.70;;
8550;SDS011;4313;42.000;21.380;2023-04-22T01:53:44;10.63;;;8.37;;
8550;SDS011;4313;42.000;21.380;2023-04-22T01:56:13;11.70;;;9.10;;
8550;SDS011;4313;42.000;21.380;2023-04-22T01:58:40;11.50;;;9.10;;
8550;SDS011;4313;42.000;21.380;2023-04-22T02:01:08;12.73;;;8.93;;
8550;SDS011;4313;42.000;21.380;2023-04-22T02:03:36;14.17;;;9.77;;
8550;SDS011;4313;42.000;21.380;2023-04-22T02:06:04;11.17;;;9.97;;
8550;SDS011;4313;42.000;21.380;2023-04-22T02:08:31;12.37;;;9.73;;
8550;SDS011;4313;42.000;21.380;2023-04-22T02:10:59;13.80;;;9.17;;
8550;SDS011;4313;42.000;21.380;2023-04-22T02:13:34;12.70;;;8.97;;
8550;SDS011;4313;42.000;21.380;2023-04-22T02:16:01;12.10;;;9.77;;
8550;SDS011;4313;42.000;21.380;2023-04-22T02:18:29;10.17;;;8.50;;
8550;SDS011;4313;42.000;21.380;2023-04-22T02:20:56;14.27;;;9.73;;
8550;SDS011;4313;42.000;21.380;2023-04-22T02:23:23;9.87;;;8.47;;
8550;SDS011;4313;42.000;21.380;2023-04-22T02:25:51;12.23;;;8.33;;
8550;SDS011;4313;42.000;21.380;2023-04-22T02:28:19;12.53;;;9.07;;
8550;SDS011;4313;42.000;21.380;2023-04-22T02:30:48;10.97;;;8.90;;
8550;SDS011;4313;42.000;21.380;2023-04-22T02:33:15;14.87;;;9.00;;
8550;SDS011;4313;42.000;21.380;2023-04-22T02:35:42;12.57;;;9.53;;
8550;SDS011;4313;42.000;21.380;2023-04-22T02:38:14;12.37;;;9.53;;
8550;SDS011;4313;42.000;21.380;2023-04-22T02:40:41;9.67;;;8.67;;
8550;SDS011;4313;42.000;21.380;2023-04-22T02:43:10;14.97;;;8.67;;
8550;SDS011;4313;42.000;21.380;2023-04-22T02:45:37;14.73;;;10.40;;
8550;SDS011;4313;42.000;21.380;2023-04-22T02:48:07;18.47;;;10.80;;
8550;SDS011;4313;42.000;21.380;2023-04-22T02:50:34;12.70;;;8.97;;
8550;SDS011;4313;42.000;21.380;2023-04-22T02:53:01;12.20;;;8.87;;
8550;SDS011;4313;42.000;21.380;2023-04-22T02:55:29;11.40;;;8.23;;
8550;SDS011;4313;42.000;21.380;2023-04-22T02:57:56;11.17;;;8.87;;
8550;SDS011;4313;42.000;21.380;2023-04-22T03:00:23;12.40;;;9.00;;
8550;SDS011;4313;42.000;21.380;2023-04-22T03:02:50;9.93;;;8.53;;
8550;SDS011;4313;42.000;21.380;2023-04-22T03:05:22;10.03;;;8.27;;
8550;SDS011;4313;42.000;21.380;2023-04-22T03:07:50;12.17;;;8.60;;
8550;SDS011;4313;42.000;21.380;2023-04-22T03:10:17;12.13;;;9.10;;
8550;SDS011;4313;42.000;21.380;2023-04-22T03:12:44;13.17;;;8.43;;
8550;SDS011;4313;42.000;21.380;2023-04-22T03:15:15;8.80;;;7.90;;
8550;SDS011;4313;42.000;21.380;2023-04-22T03:17:42;11.90;;;8.90;;
8550;SDS011;4313;42.000;21.380;2023-04-22T03:20:12;11.37;;;8.53;;
8550;SDS011;4313;42.000;21.380;2023-04-22T03:22:42;9.33;;;8.30;;
8550;SDS011;4313;42.000;21.380;2023-04-22T03:25:11;12.63;;;9.30;;
8550;SDS011;4313;42.000;21.380;2023-04-22T03:27:56;10.93;;;8.90;;
8550;SDS011;4313;42.000;21.380;2023-04-22T03:30:24;10.57;;;8.87;;
8550;SDS011;4313;42.000;21.380;2023-04-22T03:32:52;12.17;;;9.13;;
8550;SDS011;4313;42.000;21.380;2023-04-22T03:35:42;12.60;;;9.07;;
8550;SDS011;4313;42.000;21.380;2023-04-22T03:38:11;10.70;;;9.37;;
8550;SDS011;4313;42.000;21.380;2023-04-22T03:40:39;13.20;;;9.87;;
8550;SDS011;4313;42.000;21.380;2023-04-22T03:43:16;13.93;;;9.60;;
8550;SDS011;4313;42.000;21.380;2023-04-22T03:45:53;14.57;;;10.53;;
8550;SDS011;4313;42.000;21.380;2023-04-22T03:48:23;14.00;;;10.63;;
8550;SDS011;4313;42.000;21.380;2023-04-22T03:50:53;16.27;;;11.07;;
8550;SDS011;4313;42.000;21.380;2023-04-22T03:53:23;13.13;;;10.63;;
8550;SDS011;4313;42.000;21.380;2023-04-22T03:55:50;13.57;;;10.93;;
8550;SDS011;4313;42.000;21.380;2023-04-22T03:58:19;15.02;;;10.95;;
8550;SDS011;4313;42.000;21.380;2023-04-22T04:00:48;14.70;;;11.32;;
8550;SDS011;4313;42.000;21.380;2023-04-22T04:03:17;15.27;;;10.98;;
8550;SDS011;4313;42.000;21.380;2023-04-22T04:05:47;11.80;;;10.43;;
8550;SDS011;4313;42.000;21.380;2023-04-22T04:08:14;17.23;;;10.80;;
8550;SDS011;4313;42.000;21.380;2023-04-22T04:10:44;13.63;;;10.90;;
8550;SDS011;4313;42.000;21.380;2023-04-22T04:13:13;16.73;;;11.43;;
8550;SDS011;4313;42.000;21.380;2023-04-22T04:16:06;17.60;;;11.47;;
8550;SDS011;4313;42.000;21.380;2023-04-22T04:18:36;13.30;;;10.73;;
8550;SDS011;4313;42.000;21.380;2023-04-22T04:21:04;14.63;;;10.83;;
8550;SDS011;4313;42.000;21.380;2023-04-22T04:23:35;14.00;;;11.30;;
8550;SDS011;4313;42.000;21.380;2023-04-22T04:26:04;16.67;;;11.27;;
8550;SDS011;4313;42.000;21.380;2023-04-22T04:28:35;13.65;;;10.35;;
8550;SDS011;4313;42.000;21.380;2023-04-22T04:31:03;14.07;;;10.50;;
8550;SDS011;4313;42.000;21.380;2023-04-22T04:33:31;14.88;;;11.15;;
8550;SDS011;4313;42.000;21.380;2023-04-22T04:35:59;13.00;;;10.90;;
8550;SDS011;4313;42.000;21.380;2023-04-22T04:38:29;14.63;;;10.80;;
8550;SDS011;4313;42.000;21.380;2023-04-22T04:40:56;14.90;;;11.20;;
8550;SDS011;4313;42.000;21.380;2023-04-22T04:43:27;13.03;;;11.27;;
8550;SDS011;4313;42.000;21.380;2023-04-22T04:46:03;13.67;;;11.33;;
8550;SDS011;4313;42.000;21.380;2023-04-22T04:48:34;15.02;;;11.50;;
8550;SDS011;4313;42.000;21.380;2023-04-22T04:51:05;13.90;;;11.43;;
8550;SDS011;4313;42.000;21.380;2023-04-22T04:53:37;12.65;;;10.43;;
8550;SDS011;4313;42.000;21.380;2023-04-22T04:56:04;14.32;;;9.05;;
8550;SDS011;4313;42.000;21.380;2023-04-22T04:58:34;14.38;;;10.98;;
8550;SDS011;4313;42.000;21.380;2023-04-22T05:01:17;17.57;;;10.23;;
8550;SDS011;4313;42.000;21.380;2023-04-22T05:03:45;13.00;;;10.20;;
8550;SDS011;4313;42.000;21.380;2023-04-22T05:06:15;11.17;;;9.20;;
8550;SDS011;4313;42.000;21.380;2023-04-22T05:08:47;13.00;;;9.47;;
8550;SDS011;4313;42.000;21.380;2023-04-22T05:11:14;14.63;;;9.37;;
8550;SDS011;4313;42.000;21.380;2023-04-22T05:13:45;12.45;;;8.85;;
8550;SDS011;4313;42.000;21.380;2023-04-22T05:16:19;11.70;;;9.05;;
8550;SDS011;4313;42.000;21.380;2023-04-22T05:18:46;14.85;;;8.88;;
8550;SDS011;4313;42.000;21.380;2023-04-22T05:21:15;18.52;;;10.63;;
8550;SDS011;4313;42.000;21.380;2023-04-22T05:23:44;13.30;;;9.02;;
8550;SDS011;4313;42.000;21.380;2023-04-22T05:26:12;12.65;;;8.48;;
8550;SDS011;4313;42.000;21.380;2023-04-22T05:28:41;10.60;;;8.70;;
8550;SDS011;4313;42.000;21.380;2023-04-22T05:31:10;12.23;;;7.82;;
8550;SDS011;4313;42.000;21.380;2023-04-22T05:33:37;11.43;;;8.18;;
8550;SDS011;4313;42.000;21.380;2023-04-22T05:36:05;10.98;;;7.88;;
8550;SDS011;4313;42.000;21.380;2023-04-22T05:38:33;10.25;;;7.90;;
8550;SDS011;4313;42.000;21.380;2023-04-22T05:41:00;10.77;;;7.38;;
8550;SDS011;4313;42.000;21.380;2023-04-22T05:43:28;11.35;;;7.72;;
8550;SDS011;4313;42.000;21.380;2023-04-22T05:46:10;12.32;;;7.97;;
8550;SDS011;4313;42.000;21.380;2023-04-22T05:48:40;12.40;;;7.38;;
8550;SDS011;4313;42.000;21.380;2023-04-22T05:51:17;10.90;;;7.18;;
8550;SDS011;4313;42.000;21.380;2023-04-22T05:53:44;12.65;;;6.85;;
8550;SDS011;4313;42.000;21.380;2023-04-22T05:56:12;9.23;;;7.13;;
8550;SDS011;4313;42.000;21.380;2023-04-22T05:58:39;10.98;;;6.90;;
8550;SDS011;4313;42.000;21.380;2023-04-22T06:01:14;14.85;;;6.65;;
8550;SDS011;4313;42.000;21.380;2023-04-22T06:03:45;11.77;;;7.07;;
8550;SDS011;4313;42.000;21.380;2023-04-22T06:06:12;11.25;;;6.90;;
8550;SDS011;4313;42.000;21.380;2023-04-22T06:08:39;9.27;;;6.30;;
8550;SDS011;4313;42.000;21.380;2023-04-22T06:11:06;9.60;;;6.32;;
8550;SDS011;4313;42.000;21.380;2023-04-22T06:13:35;10.10;;;6.53;;
8550;SDS011;4313;42.000;21.380;2023-04-22T06:16:02;12.65;;;6.93;;
8550;SDS011;4313;42.000;21.380;2023-04-22T06:18:32;13.13;;;6.90;;
8550;SDS011;4313;42.000;21.380;2023-04-22T06:21:02;9.18;;;6.60;;
8550;SDS011;4313;42.000;21.380;2023-04-22T06:23:29;13.30;;;6.80;;
8550;SDS011;4313;42.000;21.380;2023-04-22T06:25:56;13.00;;;6.43;;
8550;SDS011;4313;42.000;21.380;2023-04-22T06:28:25;18.45;;;6.75;;
8550;SDS011;4313;42.000;21.380;2023-04-22T06:30:55;10.63;;;6.00;;
8550;SDS011;4313;42.000;21.380;2023-04-22T06:33:22;10.45;;;6.25;;
8550;SDS011;4313;42.000;21.380;2023-04-22T06:35:51;11.98;;;5.85;;
8550;SDS011;4313;42.000;21.380;2023-04-22T06:38:18;15.30;;;6.57;;
8550;SDS011;4313;42.000;21.380;2023-04-22T06:41:05;9.55;;;5.93;;
8550;SDS011;4313;42.000;21.380;2023-04-22T06:43:36;9.52;;;5.70;;
8550;SDS011;4313;42.000;21.380;2023-04-22T06:46:24;10.18;;;5.57;;
8550;SDS011;4313;42.000;21.380;2023-04-22T06:49:09;9.25;;;5.65;;
8550;SDS011;4313;42.000;21.380;2023-04-22T06:52:01;12.07;;;7.15;;
8550;SDS011;4313;42.000;21.380;2023-04-22T06:54:28;11.63;;;6.85;;
8550;SDS011;4313;42.000;21.380;2023-04-22T06:56:56;10.48;;;5.55;;
8550;SDS011;4313;42.000;21.380;2023-04-22T06:59:23;10.82;;;6.07;;
8550;SDS011;4313;42.000;21.380;2023-04-22T07:01:50;8.45;;;5.65;;
8550;SDS011;4313;42.000;21.380;2023-04-22T07:04:17;12.13;;;6.40;;
8550;SDS011;4313;42.000;21.380;2023-04-22T07:06:44;9.95;;;5.60;;
8550;SDS011;4313;42.000;21.380;2023-04-22T07:09:13;9.20;;;5.45;;
8550;SDS011;4313;42.000;21.380;2023-04-22T07:11:41;10.85;;;6.05;;
8550;SDS011;4313;42.000;21.380;2023-04-22T07:14:13;8.80;;;5.65;;
8550;SDS011;4313;42.000;21.380;2023-04-22T07:16:40;8.25;;;6.13;;
8550;SDS011;4313;42.000;21.380;2023-04-22T07:19:08;10.57;;;5.97;;
8550;SDS011;4313;42.000;21.380;2023-04-22T07:21:35;9.68;;;5.80;;
8550;SDS011;4313;42.000;21.380;2023-04-22T07:24:02;11.68;;;6.28;;
8550;SDS011;4313;42.000;21.380;2023-04-22T07:26:31;6.90;;;4.95;;
8550;SDS011;4313;42.000;21.380;2023-04-22T07:28:58;11.60;;;5.60;;
8550;SDS011;4313;42.000;21.380;2023-04-22T07:31:25;8.18;;;5.63;;
8550;SDS011;4313;42.000;21.380;2023-04-22T07:33:52;9.05;;;5.72;;
8550;SDS011;4313;42.000;21.380;2023-04-22T07:36:20;13.10;;;6.47;;
8550;SDS011;4313;42.000;21.380;2023-04-22T07:38:47;10.45;;;5.95;;
8550;SDS011;4313;42.000;21.380;2023-04-22T07:41:14;8.07;;;5.20;;
8550;SDS011;4313;42.000;21.380;2023-04-22T07:43:42;8.27;;;5.70;;
8550;SDS011;4313;42.000;21.380;2023-04-22T07:46:09;9.88;;;5.25;;
8550;SDS011;4313;42.000;21.380;2023-04-22T07:48:36;11.75;;;5.57;;
8550;SDS011;4313;42.000;21.380;2023-04-22T07:51:03;11.07;;;5.65;;
8550;SDS011;4313;42.000;21.380;2023-04-22T07:53:31;8.32;;;5.85;;
8550;SDS011;4313;42.000;21.380;2023-04-22T07:55:59;7.80;;;5.75;;
8550;SDS011;4313;42.000;21.380;2023-04-22T07:58:29;7.20;;;6.20;;
8550;SDS011;4313;42.000;21.380;2023-04-22T08:00:57;9.20;;;6.72;;
8550;SDS011;4313;42.000;21.380;2023-04-22T08:03:25;9.00;;;7.22;;
8550;SDS011;4313;42.000;21.380;2023-04-22T08:05:52;7.88;;;6.88;;
8550;SDS011;4313;42.000;21.380;2023-04-22T08:08:20;12.25;;;7.47;;
8550;SDS011;4313;42.000;21.380;2023-04-22T08:10:48;9.75;;;7.45;;
8550;SDS011;4313;42.000;21.380;2023-04-22T08:13:15;11.90;;;8.80;;
8550;SDS011;4313;42.000;21.380;2023-04-22T08:15:42;13.45;;;10.25;;
8550;SDS011;4313;42.000;21.380;2023-04-22T08:18:10;18.38;;;16.00;;
8550;SDS011;4313;42.000;21.380;2023-04-22T08:20:56;14.25;;;11.00;;
8550;SDS011;4313;42.000;21.380;2023-04-22T08:23:23;12.30;;;9.20;;
8550;SDS011;4313;42.000;21.380;2023-04-22T08:25:51;10.23;;;8.25;;
8550;SDS011;4313;42.000;21.380;2023-04-22T08:28:18;10.55;;;8.07;;
8550;SDS011;4313;42.000;21.380;2023-04-22T08:30:46;9.98;;;8.00;;
8550;SDS011;4313;42.000;21.380;2023-04-22T08:33:14;12.63;;;7.88;;
8550;SDS011;4313;42.000;21.380;2023-04-22T08:35:42;10.27;;;7.20;;
8550;SDS011;4313;42.000;21.380;2023-04-22T08:38:09;9.02;;;7.38;;
8550;SDS011;4313;42.000;21.380;2023-04-22T08:40:37;11.32;;;6.95;;
8550;SDS011;4313;42.000;21.380;2023-04-22T08:43:06;13.88;;;7.55;;
8550;SDS011;4313;42.000;21.380;2023-04-22T08:45:33;8.95;;;5.93;;
8550;SDS011;4313;42.000;21.380;2023-04-22T08:48:02;7.70;;;6.25;;
8550;SDS011;4313;42.000;21.380;2023-04-22T08:50:31;10.18;;;7.53;;
8550;SDS011;4313;42.000;21.380;2023-04-22T08:52:58;7.93;;;6.22;;
8550;SDS011;4313;42.000;21.380;2023-04-22T08:55:26;7.20;;;5.85;;
8550;SDS011;4313;42.000;21.380;2023-04-22T08:57:54;8.93;;;6.47;;
8550;SDS011;4313;42.000;21.380;2023-04-22T09:00:21;10.60;;;6.43;;
8550;SDS011;4313;42.000;21.380;2023-04-22T09:02:48;7.28;;;5.40;;
8550;SDS011;4313;42.000;21.380;2023-04-22T09:05:16;8.40;;;5.55;;
8550;SDS011;4313;42.000;21.380;2023-04-22T09:07:45;7.20;;;5.18;;
8550;SDS011;4313;42.000;21.380;2023-04-22T09:10:12;6.32;;;4.93;;
8550;SDS011;4313;42.000;21.380;2023-04-22T09:12:40;6.70;;;5.00;;
8550;SDS011;4313;42.000;21.380;2023-04-22T09:15:07;6.85;;;4.85;;
8550;SDS011;4313;42.000;21.380;2023-04-22T09:17:35;11.77;;;5.63;;
8550;SDS011;4313;42.000;21.380;2023-04-22T09:20:04;7.60;;;5.57;;
8550;SDS011;4313;42.000;21.380;2023-04-22T09:22:36;5.75;;;4.75;;
8550;SDS011;4313;42.000;21.380;2023-04-22T09:25:13;7.82;;;4.88;;
8550;SDS011;4313;42.000;21.380;2023-04-22T09:27:41;5.97;;;4.90;;
8550;SDS011;4313;42.000;21.380;2023-04-22T09:30:10;5.13;;;4.53;;
8550;SDS011;4313;42.000;21.380;2023-04-22T09:32:39;6.18;;;4.90;;
8550;SDS011;4313;42.000;21.380;2023-04-22T09:35:06;8.07;;;4.90;;
8550;SDS011;4313;42.000;21.380;2023-04-22T09:37:34;10.35;;;6.03;;
8550;SDS011;4313;42.000;21.380;2023-04-22T09:40:01;7.55;;;5.38;;
8550;SDS011;4313;42.000;21.380;2023-04-22T09:42:31;8.07;;;5.38;;
8550;SDS011;4313;42.000;21.380;2023-04-22T09:45:23;8.35;;;5.90;;
8550;SDS011;4313;42.000;21.380;2023-04-22T09:47:51;5.85;;;5.10;;
8550;SDS011;4313;42.000;21.380;2023-04-22T09:50:18;6.53;;;5.32;;
8550;SDS011;4313;42.000;21.380;2023-04-22T09:52:52;7.30;;;5.20;;
8550;SDS011;4313;42.000;21.380;2023-04-22T09:55:20;7.03;;;5.35;;
8550;SDS011;4313;42.000;21.380;2023-04-22T09:57:51;7.20;;;5.00;;
8550;SDS011;4313;42.000;21.380;2023-04-22T10:00:19;9.15;;;5.07;;
8550;SDS011;4313;42.000;21.380;2023-04-22T10:02:46;8.25;;;4.78;;
8550;SDS011;4313;42.000;21.380;2023-04-22T10:05:13;7.90;;;5.25;;
8550;SDS011;4313;42.000;21.380;2023-04-22T10:07:41;7.68;;;5.00;;
8550;SDS011;4313;42.000;21.380;2023-04-22T10:10:08;8.07;;;5.60;;
8550;SDS011;4313;42.000;21.380;2023-04-22T10:12:35;6.63;;;4.97;;
8550;SDS011;4313;42.000;21.380;2023-04-22T10:15:05;9.00;;;4.90;;
8550;SDS011;4313;42.000;21.380;2023-04-22T10:17:35;10.80;;;5.60;;
8550;SDS011;4313;42.000;21.380;2023-04-22T10:20:03;7.82;;;4.80;;
8550;SDS011;4313;42.000;21.380;2023-04-22T10:22:38;8.85;;;5.28;;
8550;SDS011;4313;42.000;21.380;2023-04-22T10:25:10;8.82;;;4.93;;
8550;SDS011;4313;42.000;21.380;2023-04-22T10:27:38;7.13;;;4.75;;
8550;SDS011;4313;42.000;21.380;2023-04-22T10:30:08;7.47;;;4.47;;
8550;SDS011;4313;42.000;21.380;2023-04-22T10:32:37;8.43;;;6.00;;
8550;SDS011;4313;42.000;21.380;2023-04-22T10:35:08;6.40;;;4.70;;
8550;SDS011;4313;42.000;21.380;2023-04-22T10:37:39;9.40;;;4.15;;
8550;SDS011;4313;42.000;21.380;2023-04-22T10:40:15;5.55;;;4.22;;
8550;SDS011;4313;42.000;21.380;2023-04-22T10:42:45;8.63;;;4.90;;
8550;SDS011;4313;42.000;21.380;2023-04-22T10:45:15;6.57;;;4.50;;
8550;SDS011;4313;42.000;21.380;2023-04-22T10:47:43;10.80;;;4.55;;
8550;SDS011;4313;42.000;21.380;2023-04-22T10:50:11;14.80;;;4.25;;
8550;SDS011;4313;42.000;21.380;2023-04-22T10:52:45;8.27;;;4.22;;
8550;SDS011;4313;42.000;21.380;2023-04-22T10:55:14;6.22;;;3.95;;
8550;SDS011;4313;42.000;21.380;2023-04-22T10:57:42;6.72;;;4.43;;
8550;SDS011;4313;42.000;21.380;2023-04-22T11:03:55;14.88;;;4.60;;
8550;SDS011;4313;42.000;21.380;2023-04-22T11:06:48;7.45;;;4.60;;
8550;SDS011;4313;42.000;21.380;2023-04-22T11:09:42;5.38;;;3.88;;
8550;SDS011;4313;42.000;21.380;2023-04-22T11:15:08;7.43;;;4.40;;
8550;SDS011;4313;42.000;21.380;2023-04-22T11:17:36;5.25;;;4.50;;
8550;SDS011;4313;42.000;21.380;2023-04-22T11:20:07;6.57;;;4.38;;
8550;SDS011;4313;42.000;21.380;2023-04-22T11:22:34;11.95;;;4.20;;
8550;SDS011;4313;42.000;21.380;2023-04-22T11:25:02;7.55;;;5.22;;
8550;SDS011;4313;42.000;21.380;2023-04-22T11:27:32;12.05;;;7.60;;
8550;SDS011;4313;42.000;21.380;2023-04-22T11:29:59;7.78;;;4.70;;
8550;SDS011;4313;42.000;21.380;2023-04-22T11:32:27;8.20;;;4.53;;
8550;SDS011;4313;42.000;21.380;2023-04-22T11:34:54;9.00;;;4.60;;
8550;SDS011;4313;42.000;21.380;2023-04-22T11:37:23;6.85;;;4.38;;
8550;SDS011;4313;42.000;21.380;2023-04-22T11:39:51;5.47;;;4.40;;
8550;SDS011;4313;42.000;21.380;2023-04-22T11:42:19;10.55;;;5.90;;
8550;SDS011;4313;42.000;21.380;2023-04-22T11:44:47;5.93;;;4.70;;
8550;SDS011;4313;42.000;21.380;2023-04-22T11:47:14;9.68;;;5.55;;
8550;SDS011;4313;42.000;21.380;2023-04-22T11:49:53;6.95;;;5.32;;
8550;SDS011;4313;42.000;21.380;2023-04-22T11:52:21;8.40;;;4.40;;
8550;SDS011;4313;42.000;21.380;2023-04-22T11:54:49;11.38;;;7.85;;
8550;SDS011;4313;42.000;21.380;2023-04-22T11:57:35;10.73;;;5.15;;
8550;SDS011;4313;42.000;21.380;2023-04-22T12:00:02;8.15;;;4.88;;
8550;SDS011;4313;42.000;21.380;2023-04-22T12:02:31;5.95;;;4.53;;
8550;SDS011;4313;42.000;21.380;2023-04-22T12:04:58;5.80;;;4.88;;
8550;SDS011;4313;42.000;21.380;2023-04-22T12:07:25;6.55;;;5.00;;
8550;SDS011;4313;42.000;21.380;2023-04-22T12:09:54;7.03;;;4.70;;
8550;SDS011;4313;42.000;21.380;2023-04-22T12:12:23;8.70;;;5.43;;
8550;SDS011;4313;42.000;21.380;2023-04-22T12:14:50;7.68;;;5.03;;
8550;SDS011;4313;42.000;21.380;2023-04-22T12:17:21;7.18;;;4.57;;
8550;SDS011;4313;42.000;21.380;2023-04-22T12:19:52;6.78;;;5.22;;
8550;SDS011;4313;42.000;21.380;2023-04-22T12:22:23;8.43;;;4.80;;
8550;SDS011;4313;42.000;21.380;2023-04-22T12:24:51;8.13;;;4.47;;
8550;SDS011;4313;42.000;21.380;2023-04-22T12:27:20;6.70;;;4.22;;
8550;SDS011;4313;42.000;21.380;2023-04-22T12:29:50;6.72;;;4.75;;
8550;SDS011;4313;42.000;21.380;2023-04-22T12:32:19;7.43;;;4.68;;
8550;SDS011;4313;42.000;21.380;2023-04-22T12:34:46;5.72;;;4.78;;
8550;SDS011;4313;42.000;21.380;2023-04-22T12:37:13;9.30;;;4.50;;
8550;SDS011;4313;42.000;21.380;2023-04-22T12:39:40;9.40;;;4.97;;
8550;SDS011;4313;42.000;21.380;2023-04-22T12:42:08;7.47;;;5.30;;
8550;SDS011;4313;42.000;21.380;2023-04-22T12:44:37;6.57;;;4.88;;
8550;SDS011;4313;42.000;21.380;2023-04-22T12:47:04;8.48;;;4.97;;
8550;SDS011;4313;42.000;21.380;2023-04-22T12:49:31;6.80;;;4.60;;
8550;SDS011;4313;42.000;21.380;2023-04-22T12:51:58;6.78;;;4.65;;
8550;SDS011;4313;42.000;21.380;2023-04-22T12:54:25;7.03;;;4.45;;
8550;SDS011;4313;42.000;21.380;2023-04-22T12:56:52;8.18;;;5.05;;
8550;SDS011;4313;42.000;21.380;2023-04-22T12:59:19;9.52;;;4.88;;
8550;SDS011;4313;42.000;21.380;2023-04-22T13:01:48;7.47;;;4.90;;
8550;SDS011;4313;42.000;21.380;2023-04-22T13:04:16;6.05;;;4.45;;
8550;SDS011;4313;42.000;21.380;2023-04-22T13:06:44;7.22;;;4.70;;
8550;SDS011;4313;42.000;21.380;2023-04-22T13:09:11;5.93;;;4.65;;
8550;SDS011;4313;42.000;21.380;2023-04-22T13:11:38;6.75;;;4.15;;
8550;SDS011;4313;42.000;21.380;2023-04-22T13:14:05;8.07;;;4.22;;
8550;SDS011;4313;42.000;21.380;2023-04-22T13:16:32;8.15;;;4.13;;
8550;SDS011;4313;42.000;21.380;2023-04-22T13:19:01;5.88;;;3.30;;
8550;SDS011;4313;42.000;21.380;2023-04-22T13:21:28;6.55;;;3.80;;
8550;SDS011;4313;42.000;21.380;2023-04-22T13:23:56;6.15;;;3.67;;
8550;SDS011;4313;42.000;21.380;2023-04-22T13:26:23;8.80;;;3.60;;
8550;SDS011;4313;42.000;21.380;2023-04-22T13:28:51;6.80;;;3.30;;
8550;SDS011;4313;42.000;21.380;2023-04-22T13:31:19;6.80;;;2.67;;
8550;SDS011;4313;42.000;21.380;2023-04-22T13:33:46;4.18;;;2.67;;
8550;SDS011;4313;42.000;21.380;2023-04-22T13:36:15;5.65;;;2.67;;
8550;SDS011;4313;42.000;21.380;2023-04-22T13:38:42;7.40;;;3.00;;
8550;SDS011;4313;42.000;21.380;2023-04-22T13:41:09;6.05;;;3.00;;
8550;SDS011;4313;42.000;21.380;2023-04-22T13:43:36;6.35;;;3.10;;
8550;SDS011;4313;42.000;21.380;2023-04-22T13:46:03;5.65;;;3.00;;
8550;SDS011;4313;42.000;21.380;2023-04-22T13:48:30;6.53;;;3.20;;
8550;SDS011;4313;42.000;21.380;2023-04-22T13:50:58;7.60;;;3.03;;
8550;SDS011;4313;42.000;21.380;2023-04-22T13:53:26;8.02;;;2.90;;
8550;SDS011;4313;42.000;21.380;2023-04-22T13:55:53;7.28;;;3.20;;
8550;SDS011;4313;42.000;21.380;2023-04-22T13:58:21;4.95;;;2.97;;
8550;SDS011;4313;42.000;21.380;2023-04-22T14:00:48;7.35;;;3.20;;
8550;SDS011;4313;42.000;21.380;2023-04-22T14:03:15;4.18;;;2.90;;
8550;SDS011;4313;42.000;21.380;2023-04-22T14:05:42;6.07;;;3.30;;
8550;SDS011;4313;42.000;21.380;2023-04-22T14:08:09;7.90;;;3.25;;
8550;SDS011;4313;42.000;21.380;2023-04-22T14:10:38;6.97;;;3.70;;
8550;SDS011;4313;42.000;21.380;2023-04-22T14:13:05;7.00;;;3.63;;
8550;SDS011;4313;42.000;21.380;2023-04-22T14:15:33;8.55;;;3.40;;
8550;SDS011;4313;42.000;21.380;2023-04-22T14:18:00;7.72;;;3.33;;
8550;SDS011;4313;42.000;21.380;2023-04-22T14:20:27;7.65;;;3.50;;
8550;SDS011;4313;42.000;21.380;2023-04-22T14:22:54;7.63;;;3.58;;
8550;SDS011;4313;42.000;21.380;2023-04-22T14:25:21;9.18;;;3.55;;
8550;SDS011;4313;42.000;21.380;2023-04-22T14:27:50;6.93;;;3.88;;
8550;SDS011;4313;42.000;21.380;2023-04-22T14:30:17;8.43;;;4.30;;
8550;SDS011;4313;42.000;21.380;2023-04-22T14:32:46;9.75;;;4.05;;
8550;SDS011;4313;42.000;21.380;2023-04-22T14:35:13;7.40;;;4.05;;
8550;SDS011;4313;42.000;21.380;2023-04-22T14:37:40;12.13;;;5.25;;
8550;SDS011;4313;42.000;21.380;2023-04-22T14:40:09;7.82;;;4.90;;
8550;SDS011;4313;42.000;21.380;2023-04-22T14:42:37;7.25;;;4.88;;
8550;SDS011;4313;42.000;21.380;2023-04-22T14:45:06;7.30;;;5.20;;
8550;SDS011;4313;42.000;21.380;2023-04-22T14:47:36;9.55;;;5.05;;
8550;SDS011;4313;42.000;21.380;2023-04-22T14:50:04;8.70;;;5.07;;
8550;SDS011;4313;42.000;21.380;2023-04-22T14:52:31;7.35;;;4.63;;
8550;SDS011;4313;42.000;21.380;2023-04-22T14:54:59;8.48;;;4.28;;
8550;SDS011;4313;42.000;21.380;2023-04-22T14:57:27;8.43;;;4.88;;
8550;SDS011;4313;42.000;21.380;2023-04-22T14:59:55;10.85;;;5.38;;
8550;SDS011;4313;42.000;21.380;2023-04-22T15:02:30;8.65;;;4.43;;
8550;SDS011;4313;42.000;21.380;2023-04-22T15:04:57;9.13;;;4.40;;
8550;SDS011;4313;42.000;21.380;2023-04-22T15:07:24;7.22;;;4.15;;
8550;SDS011;4313;42.000;21.380;2023-04-22T15:09:52;7.95;;;4.70;;
8550;SDS011;4313;42.000;21.380;2023-04-22T15:12:20;8.85;;;4.57;;